Time;durP1;ratioP1;P1;durP2;ratioP2;P2;SDS_P1;SDS_P2;PMS_P1;PMS_P2;Temp;Humidity;BMP_temperature;BMP_pressure;BME280_temperature;BME280_humidity;BME280_pressure;Samples;Min_cycle;Max_cycle;Signal;HPM_P1;HPM_P2
2020/12/09 00:00:43;;;;;;;41.83;27.90;;;2.40;99.90;;;;;;5069737;28;21285;-69
2020/12/09 00:03:09;;;;;;;45.00;26.53;;;2.40;99.90;;;;;;5073806;28;20475;-68
2020/12/09 00:05:35;;;;;;;47.77;28.97;;;2.40;99.90;;;;;;5076648;28;20580;-68
2020/12/09 00:08:02;;;;;;;41.73;25.53;;;2.40;99.90;;;;;;5077041;28;20523;-67
2020/12/09 00:10:28;;;;;;;52.40;30.70;;;2.40;99.90;;;;;;5070831;28;20529;-67
2020/12/09 00:12:54;;;;;;;44.63;27.40;;;2.40;99.90;;;;;;5069329;28;20486;-67
2020/12/09 00:15:21;;;;;;;48.90;29.37;;;2.30;99.90;;;;;;5069297;28;20478;-67
2020/12/09 00:17:48;;;;;;;47.23;28.70;;;2.20;99.90;;;;;;5069288;28;20438;-67
2020/12/09 00:20:14;;;;;;;48.23;28.70;;;2.20;99.90;;;;;;5068257;28;20526;-67
2020/12/09 00:22:41;;;;;;;50.83;30.00;;;2.20;99.90;;;;;;5068817;28;20463;-67
2020/12/09 00:25:07;;;;;;;50.40;32.10;;;2.20;99.90;;;;;;5069013;28;20534;-68
2020/12/09 00:27:34;;;;;;;45.13;28.20;;;2.10;99.90;;;;;;5069246;28;20882;-68
2020/12/09 00:30:02;;;;;;;50.67;30.63;;;2.10;99.90;;;;;;5068465;28;20470;-67
2020/12/09 00:32:29;;;;;;;50.53;29.70;;;2.20;99.90;;;;;;5068835;28;20567;-67
2020/12/09 00:34:56;;;;;;;46.03;28.10;;;2.20;99.90;;;;;;5069659;28;20829;-68
2020/12/09 00:37:22;;;;;;;54.67;31.47;;;2.20;99.90;;;;;;5069149;28;20465;-67
2020/12/09 00:39:48;;;;;;;50.40;31.10;;;2.20;99.90;;;;;;5068803;28;20526;-67
2020/12/09 00:42:15;;;;;;;54.93;29.90;;;2.20;99.90;;;;;;5068190;28;20461;-67
2020/12/09 00:44:41;;;;;;;47.30;29.87;;;2.20;99.90;;;;;;5068938;28;20446;-67
2020/12/09 00:47:08;;;;;;;50.27;29.60;;;2.30;99.90;;;;;;5068887;28;20872;-67
2020/12/09 00:52:22;;;;;;;48.40;28.90;;;2.30;99.90;;;;;;5068597;28;20474;-68
2020/12/09 00:54:48;;;;;;;51.53;31.10;;;2.30;99.90;;;;;;5068723;28;20446;-68
2020/12/09 00:57:15;;;;;;;49.20;30.20;;;2.30;99.90;;;;;;5068723;28;20457;-68
2020/12/09 00:59:42;;;;;;;49.87;30.03;;;2.40;99.90;;;;;;5069300;28;20443;-67
2020/12/09 01:02:09;;;;;;;51.93;29.50;;;2.40;99.90;;;;;;5071551;28;20553;-67
2020/12/09 01:04:35;;;;;;;54.30;32.53;;;2.40;99.90;;;;;;5072147;28;20457;-68
2020/12/09 01:07:02;;;;;;;51.30;30.10;;;2.40;99.90;;;;;;5072348;28;20878;-68
2020/12/09 01:09:29;;;;;;;48.77;28.20;;;2.40;99.90;;;;;;5072386;28;20439;-67
2020/12/09 01:12:00;;;;;;;50.53;30.97;;;2.40;99.90;;;;;;5071284;28;20563;-67
2020/12/09 01:14:26;;;;;;;52.20;31.60;;;2.30;99.90;;;;;;5072195;28;20443;-67
2020/12/09 01:16:53;;;;;;;51.77;30.80;;;2.30;99.90;;;;;;5071978;28;20438;-67
2020/12/09 01:19:19;;;;;;;53.43;32.67;;;2.30;99.90;;;;;;5071722;28;20443;-68
2020/12/09 01:21:46;;;;;;;50.13;32.47;;;2.30;99.90;;;;;;5071150;28;20557;-67
2020/12/09 01:24:13;;;;;;;55.03;32.30;;;2.30;99.90;;;;;;5071788;28;20572;-68
2020/12/09 01:26:39;;;;;;;54.10;33.07;;;2.30;99.90;;;;;;5071807;28;20545;-67
2020/12/09 01:29:06;;;;;;;49.10;29.67;;;2.40;99.90;;;;;;5072835;28;20526;-68
2020/12/09 01:31:32;;;;;;;51.27;30.90;;;2.50;99.90;;;;;;5072879;28;20535;-68
2020/12/09 01:33:58;;;;;;;53.70;31.57;;;2.50;99.90;;;;;;5073436;28;20809;-67
2020/12/09 01:36:25;;;;;;;55.90;32.90;;;2.50;99.90;;;;;;5071560;28;20531;-67
2020/12/09 01:38:52;;;;;;;49.17;29.40;;;2.50;99.90;;;;;;5071409;28;21172;-67
2020/12/09 01:41:20;;;;;;;48.03;30.33;;;2.50;99.90;;;;;;5070675;28;20829;-67
2020/12/09 01:43:48;;;;;;;46.33;29.90;;;2.60;99.90;;;;;;5071505;28;20444;-68
2020/12/09 01:46:15;;;;;;;53.43;30.83;;;2.50;99.90;;;;;;5071440;28;20478;-67
2020/12/09 01:48:42;;;;;;;43.90;29.93;;;2.40;99.90;;;;;;5071629;28;20526;-67
2020/12/09 01:51:09;;;;;;;53.07;31.30;;;2.40;99.90;;;;;;5070592;28;20448;-67
2020/12/09 01:53:36;;;;;;;49.17;32.77;;;2.40;99.90;;;;;;5071422;28;20526;-68
2020/12/09 01:56:02;;;;;;;49.10;29.53;;;2.50;99.90;;;;;;5071262;28;20792;-67
2020/12/09 01:58:30;;;;;;;53.50;30.60;;;2.50;99.90;;;;;;5071209;28;20447;-67
2020/12/09 02:00:56;;;;;;;49.70;30.10;;;2.50;99.90;;;;;;5070324;28;20438;-67
2020/12/09 02:03:23;;;;;;;55.50;33.10;;;2.60;99.90;;;;;;5071094;28;20464;-68
2020/12/09 02:05:49;;;;;;;53.90;31.43;;;2.50;99.90;;;;;;5071133;28;20953;-68
2020/12/09 02:08:15;;;;;;;52.70;31.20;;;2.50;99.90;;;;;;5071159;28;20530;-67
2020/12/09 02:10:42;;;;;;;50.47;30.33;;;2.40;99.90;;;;;;5069995;28;20854;-68
2020/12/09 02:13:08;;;;;;;52.03;32.80;;;2.50;99.90;;;;;;5070828;28;20557;-68
2020/12/09 02:15:35;;;;;;;51.50;31.27;;;2.40;99.90;;;;;;5070737;28;20950;-68
2020/12/09 02:18:01;;;;;;;52.43;33.90;;;2.50;99.90;;;;;;5070765;28;20427;-68
2020/12/09 02:20:28;;;;;;;51.43;32.70;;;2.60;99.90;;;;;;5069896;28;20526;-67
2020/12/09 02:22:56;;;;;;;52.97;31.33;;;2.60;99.90;;;;;;5070659;28;20455;-68
2020/12/09 02:25:22;;;;;;;48.20;31.77;;;2.60;99.90;;;;;;5070668;28;20445;-67
2020/12/09 02:27:48;;;;;;;53.83;31.33;;;2.60;99.90;;;;;;5070622;28;20439;-68
2020/12/09 02:30:15;;;;;;;56.57;31.90;;;2.60;99.90;;;;;;5070020;28;20453;-68
2020/12/09 02:32:42;;;;;;;50.10;31.27;;;2.60;99.90;;;;;;5070423;28;21204;-68
2020/12/09 02:35:08;;;;;;;54.07;33.17;;;2.60;99.90;;;;;;5070592;28;20813;-68
2020/12/09 02:37:34;;;;;;;42.93;28.80;;;2.60;99.90;;;;;;5070283;28;20520;-67
2020/12/09 02:40:02;;;;;;;55.27;30.37;;;2.60;99.90;;;;;;5069718;28;20538;-67
2020/12/09 02:42:29;;;;;;;56.40;34.23;;;2.70;99.90;;;;;;5069826;28;20466;-67
2020/12/09 02:44:55;;;;;;;50.20;31.90;;;2.70;99.90;;;;;;5070944;28;20462;-68
2020/12/09 02:47:21;;;;;;;54.03;31.33;;;2.70;99.90;;;;;;5071331;28;20878;-68
2020/12/09 02:49:48;;;;;;;50.50;31.10;;;2.70;99.90;;;;;;5070946;28;20497;-67
2020/12/09 02:52:14;;;;;;;47.73;28.87;;;2.70;99.90;;;;;;5070046;28;20483;-68
2020/12/09 02:54:40;;;;;;;45.73;29.17;;;2.70;99.90;;;;;;5070445;28;20637;-68
2020/12/09 02:57:08;;;;;;;49.50;29.97;;;2.70;99.90;;;;;;5070123;28;20884;-67
2020/12/09 02:59:34;;;;;;;52.43;30.77;;;2.70;99.90;;;;;;5069927;28;20432;-67
2020/12/09 03:02:00;;;;;;;50.50;28.90;;;2.60;99.90;;;;;;5069187;28;20455;-67
2020/12/09 03:04:27;;;;;;;52.17;31.90;;;2.60;99.90;;;;;;5069893;28;20441;-67
2020/12/09 03:06:53;;;;;;;50.17;29.40;;;2.60;99.90;;;;;;5070029;28;20457;-68
2020/12/09 03:09:20;;;;;;;69.00;33.27;;;2.50;99.90;;;;;;5069847;28;21073;-67
2020/12/09 03:11:46;;;;;;;57.93;34.03;;;2.60;99.90;;;;;;5068979;28;20514;-67
2020/12/09 03:14:13;;;;;;;53.60;32.97;;;2.50;99.90;;;;;;5069927;28;20825;-68
2020/12/09 03:16:40;;;;;;;50.17;31.30;;;2.50;99.90;;;;;;5069896;28;20440;-67
2020/12/09 03:19:06;;;;;;;53.40;32.27;;;2.60;99.90;;;;;;5069948;28;20443;-68
2020/12/09 03:21:32;;;;;;;47.57;29.90;;;2.60;99.90;;;;;;5068778;28;20541;-67
2020/12/09 03:23:59;;;;;;;52.27;31.00;;;2.60;99.90;;;;;;5068718;28;20458;-68
2020/12/09 03:26:26;;;;;;;54.80;32.27;;;2.70;99.90;;;;;;5069532;28;20448;-68
2020/12/09 03:28:53;;;;;;;60.17;34.03;;;2.60;99.90;;;;;;5069469;28;20893;-68
2020/12/09 03:31:20;;;;;;;52.90;33.20;;;2.60;99.90;;;;;;5068868;28;20470;-67
2020/12/09 03:33:47;;;;;;;51.00;29.87;;;2.60;99.90;;;;;;5069507;28;20457;-68
2020/12/09 03:36:13;;;;;;;60.40;31.87;;;2.50;99.90;;;;;;5069110;28;20439;-68
2020/12/09 03:38:40;;;;;;;48.13;28.77;;;2.50;99.90;;;;;;5068310;28;20449;-68
2020/12/09 03:41:06;;;;;;;55.87;31.33;;;2.40;99.90;;;;;;5068718;28;20959;-67
2020/12/09 03:43:32;;;;;;;58.10;35.07;;;2.40;99.90;;;;;;5069691;28;20530;-67
2020/12/09 03:45:59;;;;;;;52.80;33.23;;;2.40;99.90;;;;;;5069444;28;20545;-68
2020/12/09 03:48:26;;;;;;;53.63;31.27;;;2.50;99.90;;;;;;5069469;28;20439;-68
2020/12/09 03:50:53;;;;;;;59.07;32.47;;;2.40;99.90;;;;;;5068606;28;20443;-68
2020/12/09 03:53:20;;;;;;;61.37;34.67;;;2.40;99.90;;;;;;5069281;28;20478;-68
2020/12/09 03:55:47;;;;;;;55.57;35.37;;;2.50;99.90;;;;;;5069612;28;20644;-68
2020/12/09 03:58:13;;;;;;;59.83;34.73;;;2.50;99.90;;;;;;5069637;28;20471;-67
2020/12/09 04:00:40;;;;;;;56.10;33.53;;;2.50;99.90;;;;;;5068925;28;20609;-67
2020/12/09 04:03:06;;;;;;;59.90;34.17;;;2.50;99.90;;;;;;5069413;28;20459;-67
2020/12/09 04:05:34;;;;;;;59.73;34.53;;;2.50;99.90;;;;;;5069583;28;20449;-68
2020/12/09 04:08:00;;;;;;;59.50;35.13;;;2.60;99.90;;;;;;5069318;28;20442;-67
2020/12/09 04:10:27;;;;;;;58.60;33.30;;;2.60;99.90;;;;;;5068846;28;20533;-67
2020/12/09 04:12:54;;;;;;;60.70;34.20;;;2.60;99.90;;;;;;5069230;28;20493;-67
2020/12/09 04:15:20;;;;;;;59.87;33.97;;;2.50;99.90;;;;;;5069180;28;21263;-68
2020/12/09 04:17:47;;;;;;;57.00;33.33;;;2.50;99.90;;;;;;5069046;28;20442;-67
2020/12/09 04:20:13;;;;;;;76.18;46.83;;;2.50;99.90;;;;;;5067177;28;21409;-67
2020/12/09 04:22:40;;;;;;;68.20;39.80;;;2.50;99.90;;;;;;5068678;28;20217;-67
2020/12/09 04:25:07;;;;;;;68.23;38.90;;;2.50;99.90;;;;;;5069195;28;20431;-67
2020/12/09 04:27:33;;;;;;;68.10;36.43;;;2.60;99.90;;;;;;5069105;28;20445;-68
2020/12/09 04:29:59;;;;;;;58.63;35.77;;;2.60;99.90;;;;;;5068057;28;20439;-67
2020/12/09 04:32:26;;;;;;;57.10;35.37;;;2.60;99.90;;;;;;5068613;28;20478;-68
2020/12/09 04:34:56;;;;;;;62.33;36.23;;;2.60;99.90;;;;;;5071020;28;20467;-67
2020/12/09 04:37:25;;;;;;;62.07;33.97;;;2.60;99.90;;;;;;5072520;28;20431;-67
2020/12/09 04:39:53;;;;;;;60.70;35.77;;;2.60;99.90;;;;;;5072461;28;20447;-68
2020/12/09 04:42:20;;;;;;;59.97;33.80;;;2.60;99.90;;;;;;5072258;28;20520;-67
2020/12/09 04:44:47;;;;;;;66.20;37.80;;;2.50;99.90;;;;;;5072481;28;20518;-68
2020/12/09 04:47:18;;;;;;;66.93;37.03;;;2.50;99.90;;;;;;5072324;28;20445;-68
2020/12/09 04:49:48;;;;;;;66.27;36.13;;;2.60;99.90;;;;;;5072322;28;20450;-67
2020/12/09 04:52:39;;;;;;;63.33;34.93;;;2.70;99.90;;;;;;5071600;28;20486;-68
2020/12/09 04:55:08;;;;;;;59.90;36.30;;;2.70;99.90;;;;;;5072513;28;20968;-67
2020/12/09 04:58:15;;;;;;;64.90;35.10;;;2.70;99.90;;;;;;5072317;28;20471;-67
2020/12/09 05:00:44;;;;;;;60.77;37.43;;;2.80;99.90;;;;;;5057446;28;20533;-67
2020/12/09 05:03:18;;;;;;;62.83;35.60;;;2.80;99.90;;;;;;5072679;28;20988;-67
2020/12/09 05:05:46;;;;;;;59.17;35.97;;;2.70;99.90;;;;;;5072433;28;20435;-67
2020/12/09 05:08:21;;;;;;;62.73;36.70;;;2.80;99.90;;;;;;5072142;28;21021;-68
2020/12/09 05:10:51;;;;;;;58.50;34.33;;;2.80;99.90;;;;;;5071702;28;20496;-67
2020/12/09 05:13:22;;;;;;;62.30;34.43;;;2.80;99.90;;;;;;5072101;28;20525;-67
2020/12/09 05:15:52;;;;;;;62.67;37.50;;;2.80;99.90;;;;;;5072232;28;20886;-68
2020/12/09 05:18:34;;;;;;;63.90;36.33;;;2.80;99.90;;;;;;5072116;28;20884;-68
2020/12/09 05:21:09;;;;;;;61.60;35.37;;;2.80;99.90;;;;;;5071218;28;20450;-68
2020/12/09 05:23:43;;;;;;;59.80;36.47;;;2.80;99.90;;;;;;5071923;28;20538;-68
2020/12/09 05:26:18;;;;;;;57.90;35.80;;;2.80;99.90;;;;;;5072022;28;20439;-68
2020/12/09 05:28:45;;;;;;;58.90;35.00;;;2.70;99.90;;;;;;5071889;28;21128;-68
2020/12/09 05:31:20;;;;;;;56.80;35.10;;;2.70;99.90;;;;;;5070928;28;20530;-68
2020/12/09 05:33:47;;;;;;;57.57;34.50;;;2.70;99.90;;;;;;5072360;28;20445;-68
2020/12/09 05:36:13;;;;;;;55.87;35.90;;;2.70;99.90;;;;;;5074880;28;20518;-68
2020/12/09 05:38:40;;;;;;;65.47;37.10;;;2.80;99.90;;;;;;5074444;28;20530;-68
2020/12/09 05:41:11;;;;;;;60.67;36.30;;;2.80;99.90;;;;;;5072450;28;20475;-68
2020/12/09 05:43:42;;;;;;;78.60;37.77;;;2.90;99.90;;;;;;5071683;28;20428;-68
2020/12/09 05:46:09;;;;;;;59.70;36.37;;;2.80;99.90;;;;;;5073138;28;20434;-68
2020/12/09 05:48:36;;;;;;;66.10;36.20;;;2.80;99.90;;;;;;5074271;28;20541;-69
2020/12/09 05:51:04;;;;;;;59.80;35.87;;;2.80;99.90;;;;;;5072013;28;20526;-68
2020/12/09 05:53:31;;;;;;;58.07;35.17;;;2.80;99.90;;;;;;5072389;28;20566;-68
2020/12/09 05:56:11;;;;;;;62.43;34.80;;;2.80;99.90;;;;;;5071264;28;20530;-69
2020/12/09 05:58:40;;;;;;;57.83;35.20;;;2.90;99.90;;;;;;5071291;28;20437;-68
2020/12/09 06:01:12;;;;;;;66.13;36.30;;;2.90;99.90;;;;;;5070343;28;20447;-71
2020/12/09 06:03:41;;;;;;;59.63;33.70;;;2.90;99.90;;;;;;5071049;28;20527;-70
2020/12/09 06:06:21;;;;;;;61.97;35.00;;;2.90;99.90;;;;;;5070995;28;20527;-67
2020/12/09 06:08:49;;;;;;;56.13;34.40;;;2.80;99.90;;;;;;5070882;28;20449;-66
2020/12/09 06:11:19;;;;;;;58.23;35.90;;;2.80;99.90;;;;;;5068101;28;20455;-66
2020/12/09 06:13:45;;;;;;;58.57;33.00;;;2.80;99.90;;;;;;5068784;28;20845;-66
2020/12/09 06:16:13;;;;;;;57.57;34.97;;;2.80;99.90;;;;;;5069503;28;20878;-66
2020/12/09 06:18:45;;;;;;;57.50;36.03;;;2.80;99.90;;;;;;5068863;28;20522;-65
2020/12/09 06:21:12;;;;;;;65.27;33.83;;;2.80;99.90;;;;;;5068588;28;20435;-69
2020/12/09 06:23:39;;;;;;;60.20;34.93;;;2.80;99.90;;;;;;5069101;28;20519;-66
2020/12/09 06:26:06;;;;;;;57.27;35.00;;;2.70;99.90;;;;;;5070124;28;20445;-68
2020/12/09 06:28:35;;;;;;;62.10;34.10;;;2.70;99.90;;;;;;5070395;28;20475;-66
2020/12/09 06:31:13;;;;;;;64.87;34.73;;;2.70;99.90;;;;;;5069628;28;20818;-66
2020/12/09 06:33:41;;;;;;;61.03;33.23;;;2.70;99.90;;;;;;5070213;28;20475;-67
2020/12/09 06:36:18;;;;;;;59.67;35.50;;;2.70;99.90;;;;;;5075729;28;20538;-67
2020/12/09 06:39:11;;;;;;;55.60;33.53;;;2.80;99.90;;;;;;5088992;28;20440;-72
2020/12/09 06:42:02;;;;;;;64.57;37.30;;;2.70;99.90;;;;;;5088402;28;20468;-67
2020/12/09 06:44:30;;;;;;;59.77;33.73;;;2.70;99.90;;;;;;5088353;28;20541;-67
2020/12/09 06:46:57;;;;;;;58.37;34.30;;;2.80;99.90;;;;;;5088458;28;20925;-66
2020/12/09 06:49:38;;;;;;;59.13;35.47;;;2.80;99.90;;;;;;5088577;28;20969;-68
2020/12/09 06:52:35;;;;;;;60.60;33.37;;;2.80;99.90;;;;;;5087287;28;20505;-67
2020/12/09 06:55:03;;;;;;;55.20;31.57;;;2.80;99.90;;;;;;5047620;28;20440;-70
2020/12/09 06:57:34;;;;;;;58.07;34.43;;;2.80;99.90;;;;;;5047131;28;20865;-69
2020/12/09 07:00:21;;;;;;;62.80;35.93;;;2.80;99.90;;;;;;5046588;28;20527;-71
2020/12/09 07:02:48;;;;;;;60.87;34.67;;;2.80;99.90;;;;;;5048004;28;20486;-69
2020/12/09 07:05:16;;;;;;;53.80;31.50;;;2.80;99.90;;;;;;5047768;28;20494;-71
2020/12/09 07:07:44;;;;;;;56.83;32.27;;;2.80;99.90;;;;;;5048193;28;20539;-71
2020/12/09 07:10:27;;;;;;;61.50;34.70;;;2.80;99.90;;;;;;5047560;28;20444;-68
2020/12/09 07:13:08;;;;;;;53.67;32.10;;;2.80;99.90;;;;;;5047104;28;20479;-67
2020/12/09 07:15:37;;;;;;;57.03;33.67;;;2.80;99.90;;;;;;5049999;28;20523;-70
2020/12/09 07:18:05;;;;;;;56.47;33.97;;;2.70;99.90;;;;;;5049827;28;20931;-71
2020/12/09 07:20:31;;;;;;;65.90;36.70;;;2.80;99.90;;;;;;5049464;28;20454;-68
2020/12/09 07:22:57;;;;;;;54.40;33.17;;;2.90;99.90;;;;;;5049955;28;20890;-68
2020/12/09 07:25:24;;;;;;;53.77;33.60;;;2.90;99.90;;;;;;5049014;28;20522;-69
2020/12/09 07:27:51;;;;;;;59.07;33.00;;;3.00;99.90;;;;;;5049680;28;20534;-68
2020/12/09 07:30:19;;;;;;;55.97;32.50;;;3.00;99.90;;;;;;5049115;28;21202;-69
2020/12/09 07:32:48;;;;;;;55.20;33.23;;;3.00;99.90;;;;;;5049773;28;21357;-69
2020/12/09 07:35:17;;;;;;;49.47;31.40;;;3.10;99.90;;;;;;5049753;28;20530;-69
2020/12/09 07:37:45;;;;;;;59.57;35.70;;;3.10;99.90;;;;;;5049874;28;20479;-69
2020/12/09 07:40:15;;;;;;;49.90;31.30;;;3.10;99.90;;;;;;5049047;28;20446;-69
2020/12/09 07:42:41;;;;;;;50.60;31.93;;;3.10;99.90;;;;;;5049426;28;20464;-69
2020/12/09 07:45:16;;;;;;;48.33;30.97;;;3.10;99.90;;;;;;5049838;28;20531;-67
2020/12/09 07:47:43;;;;;;;50.67;32.57;;;3.00;99.90;;;;;;5049678;28;20443;-69
2020/12/09 07:50:11;;;;;;;52.60;32.60;;;3.00;99.90;;;;;;5049118;28;20472;-68
2020/12/09 07:52:39;;;;;;;57.73;34.80;;;3.10;99.90;;;;;;5049464;28;20482;-69
2020/12/09 07:55:08;;;;;;;52.90;33.43;;;3.20;99.90;;;;;;5049567;28;20535;-69
2020/12/09 07:57:38;;;;;;;53.17;32.70;;;3.20;99.90;;;;;;5049740;28;20950;-69
2020/12/09 08:00:08;;;;;;;47.80;33.67;;;3.20;99.90;;;;;;5049073;28;20881;-68
2020/12/09 08:02:38;;;;;;;51.20;30.70;;;3.20;99.90;;;;;;5049198;28;20452;-67
2020/12/09 08:05:14;;;;;;;54.63;34.23;;;3.20;99.90;;;;;;5049503;28;20873;-68
2020/12/09 08:07:53;;;;;;;50.70;33.43;;;3.10;99.90;;;;;;5049432;28;20526;-69
2020/12/09 08:10:22;;;;;;;57.23;34.37;;;3.10;99.90;;;;;;5052109;28;20435;-68
2020/12/09 08:12:49;;;;;;;57.50;32.43;;;3.10;99.90;;;;;;5053368;28;20509;-69
2020/12/09 08:15:15;;;;;;;51.50;31.80;;;3.00;99.90;;;;;;5053792;28;20476;-70
2020/12/09 08:17:47;;;;;;;48.27;32.53;;;3.10;99.90;;;;;;5053710;28;20522;-70
2020/12/09 08:20:14;;;;;;;52.50;31.93;;;3.10;99.90;;;;;;5052621;28;20819;-67
2020/12/09 08:22:58;;;;;;;55.93;33.77;;;3.10;99.90;;;;;;5053851;28;20496;-68
2020/12/09 08:25:26;;;;;;;57.27;35.87;;;3.10;99.90;;;;;;5054105;28;20471;-69
2020/12/09 08:27:53;;;;;;;53.20;34.33;;;3.10;99.90;;;;;;5053777;28;20490;-69
2020/12/09 08:30:22;;;;;;;53.80;32.63;;;3.10;99.90;;;;;;5052228;28;20451;-68
2020/12/09 08:33:14;;;;;;;57.13;35.33;;;3.20;99.90;;;;;;5053084;28;20487;-69
2020/12/09 08:35:57;;;;;;;52.97;35.07;;;3.20;99.90;;;;;;5053104;28;20519;-67
2020/12/09 08:38:27;;;;;;;55.97;34.97;;;3.20;99.90;;;;;;5052987;28;20450;-66
2020/12/09 08:40:55;;;;;;;56.90;33.97;;;3.20;99.90;;;;;;5052099;28;20442;-67
2020/12/09 08:43:23;;;;;;;56.53;36.10;;;3.30;99.90;;;;;;5052910;28;20902;-68
2020/12/09 08:45:49;;;;;;;56.20;34.00;;;3.30;99.90;;;;;;5052789;28;20988;-67
2020/12/09 08:48:18;;;;;;;61.90;37.03;;;3.40;99.90;;;;;;5052905;28;20530;-66
2020/12/09 08:50:45;;;;;;;55.53;33.10;;;3.40;99.90;;;;;;5051926;28;20490;-68
2020/12/09 08:53:12;;;;;;;54.43;33.77;;;3.40;99.90;;;;;;5052479;28;20475;-68
2020/12/09 08:55:39;;;;;;;50.60;31.67;;;3.40;99.90;;;;;;5052508;28;20439;-67
2020/12/09 08:58:05;;;;;;;54.73;32.43;;;3.40;99.90;;;;;;5052477;28;20440;-67
2020/12/09 09:00:33;;;;;;;54.43;34.00;;;3.40;99.90;;;;;;5051779;28;20439;-68
2020/12/09 09:03:00;;;;;;;62.80;37.17;;;3.40;99.90;;;;;;5052343;28;20485;-66
2020/12/09 09:05:26;;;;;;;60.33;36.47;;;3.30;99.90;;;;;;5052471;28;20448;-66
2020/12/09 09:07:52;;;;;;;59.37;33.77;;;3.30;99.90;;;;;;5052227;28;20451;-67
2020/12/09 09:10:20;;;;;;;53.40;34.27;;;3.40;99.90;;;;;;5051708;28;20444;-67
2020/12/09 09:12:46;;;;;;;54.77;33.23;;;3.40;99.90;;;;;;5052172;28;20519;-67
2020/12/09 09:15:12;;;;;;;52.23;34.47;;;3.40;99.90;;;;;;5052024;28;20501;-66
2020/12/09 09:17:39;;;;;;;63.53;35.87;;;3.40;99.90;;;;;;5052187;28;20479;-67
2020/12/09 09:20:06;;;;;;;52.20;34.23;;;3.50;99.90;;;;;;5051018;28;20436;-68
2020/12/09 09:22:32;;;;;;;59.47;36.03;;;3.50;99.90;;;;;;5051494;28;21093;-67
2020/12/09 09:24:59;;;;;;;57.63;34.93;;;3.60;99.90;;;;;;5051889;28;20555;-69
2020/12/09 09:27:26;;;;;;;58.57;33.33;;;3.60;99.90;;;;;;5052112;28;20550;-70
2020/12/09 09:29:53;;;;;;;59.03;34.80;;;3.60;99.90;;;;;;5051927;28;20436;-70
2020/12/09 09:32:22;;;;;;;57.77;34.47;;;3.60;99.90;;;;;;5051464;28;20490;-70
2020/12/09 09:34:48;;;;;;;56.20;33.87;;;3.60;99.90;;;;;;5051699;28;20488;-69
2020/12/09 09:37:15;;;;;;;53.93;35.00;;;3.60;99.90;;;;;;5051612;28;20531;-69
2020/12/09 09:39:43;;;;;;;59.00;34.30;;;3.70;99.90;;;;;;5051587;28;20955;-70
2020/12/09 09:42:09;;;;;;;57.50;34.17;;;3.70;99.90;;;;;;5050954;28;20982;-67
2020/12/09 09:44:37;;;;;;;53.30;33.13;;;3.70;99.90;;;;;;5051575;28;20446;-69
2020/12/09 09:47:03;;;;;;;54.03;34.20;;;3.70;99.90;;;;;;5051595;28;20514;-69
2020/12/09 09:49:30;;;;;;;60.70;35.93;;;3.70;99.90;;;;;;5051405;28;20866;-69
2020/12/09 09:51:56;;;;;;;52.17;31.77;;;3.70;99.90;;;;;;5050828;28;20463;-69
2020/12/09 09:54:22;;;;;;;59.33;35.00;;;3.70;99.90;;;;;;5051233;28;21007;-69
2020/12/09 09:56:49;;;;;;;55.47;33.77;;;3.60;99.90;;;;;;5051357;28;20482;-69
2020/12/09 09:59:16;;;;;;;56.00;34.45;;;3.60;99.90;;;;;;5051098;28;20436;-68
2020/12/09 10:01:44;;;;;;;55.90;32.77;;;3.50;99.90;;;;;;5050616;28;20317;-67
2020/12/09 10:04:11;;;;;;;60.53;32.90;;;3.50;99.90;;;;;;5051170;28;20818;-68
2020/12/09 10:06:37;;;;;;;51.13;32.27;;;3.50;99.90;;;;;;5051305;28;20949;-69
2020/12/09 10:09:06;;;;;;;59.80;34.07;;;3.50;99.90;;;;;;5051631;28;20436;-69
2020/12/09 10:11:36;;;;;;;51.83;32.23;;;3.50;99.90;;;;;;5050883;28;20555;-69
2020/12/09 10:14:02;;;;;;;61.33;34.90;;;3.40;99.90;;;;;;5051746;28;21161;-69
2020/12/09 10:16:28;;;;;;;51.70;32.17;;;3.40;99.90;;;;;;5051204;28;20475;-69
2020/12/09 10:18:56;;;;;;;53.27;34.23;;;3.40;99.90;;;;;;5051216;28;20535;-69
2020/12/09 10:21:24;;;;;;;59.20;34.20;;;3.40;99.90;;;;;;5050610;28;20547;-69
2020/12/09 10:23:50;;;;;;;56.27;33.13;;;3.40;99.90;;;;;;5050950;28;20480;-69
2020/12/09 10:26:16;;;;;;;48.67;31.00;;;3.40;99.90;;;;;;5050852;28;21186;-70
2020/12/09 10:28:43;;;;;;;50.30;30.37;;;3.30;99.90;;;;;;5050917;28;20531;-68
2020/12/09 10:31:10;;;;;;;50.30;29.87;;;3.30;99.90;;;;;;5049905;28;20570;-68
2020/12/09 10:33:36;;;;;;;52.17;31.13;;;3.30;99.90;;;;;;5050619;28;20491;-70
2020/12/09 10:36:04;;;;;;;50.83;31.93;;;3.30;99.90;;;;;;5050912;28;20446;-70
2020/12/09 10:38:32;;;;;;;54.57;31.30;;;3.40;99.90;;;;;;5050454;28;21122;-68
2020/12/09 10:40:59;;;;;;;57.57;32.20;;;3.40;99.90;;;;;;5050109;28;20876;-68
2020/12/09 10:43:25;;;;;;;55.10;34.53;;;3.50;99.90;;;;;;5050419;28;20482;-68
2020/12/09 10:45:52;;;;;;;53.00;32.77;;;3.50;99.90;;;;;;5050454;28;20886;-69
2020/12/09 10:48:18;;;;;;;51.17;32.63;;;3.50;99.90;;;;;;5050385;28;20994;-70
2020/12/09 10:50:45;;;;;;;48.80;29.43;;;3.60;99.90;;;;;;5049902;28;20883;-69
2020/12/09 10:53:12;;;;;;;48.40;31.60;;;3.60;99.90;;;;;;5050271;28;20480;-70
2020/12/09 10:55:39;;;;;;;47.20;30.30;;;3.60;99.90;;;;;;5052015;28;20531;-69
2020/12/09 10:58:05;;;;;;;49.33;31.10;;;3.60;99.90;;;;;;5050232;28;20523;-69
2020/12/09 11:00:32;;;;;;;50.00;31.13;;;3.60;99.90;;;;;;5049487;28;20442;-68
2020/12/09 11:02:58;;;;;;;45.70;29.57;;;3.60;99.90;;;;;;5050392;28;20547;-68
2020/12/09 11:05:25;;;;;;;48.57;29.80;;;3.60;99.90;;;;;;5050109;28;20927;-69
2020/12/09 11:07:51;;;;;;;48.33;31.60;;;3.60;99.90;;;;;;5050759;28;20454;-72
2020/12/09 11:10:18;;;;;;;49.80;31.40;;;3.70;99.90;;;;;;5049383;28;20539;-69
2020/12/09 11:12:45;;;;;;;61.57;34.30;;;3.70;99.90;;;;;;5049690;28;20511;-68
2020/12/09 11:15:11;;;;;;;54.37;33.37;;;3.70;99.90;;;;;;5050048;28;20527;-68
2020/12/09 11:17:38;;;;;;;51.30;32.00;;;3.80;99.90;;;;;;5050321;28;20446;-68
2020/12/09 11:20:05;;;;;;;51.53;32.40;;;3.80;99.90;;;;;;5049670;28;20602;-68
2020/12/09 11:22:31;;;;;;;51.37;32.47;;;3.80;99.90;;;;;;5049881;28;20559;-69
2020/12/09 11:24:58;;;;;;;56.40;31.93;;;3.80;99.90;;;;;;5049958;28;20559;-69
2020/12/09 11:27:25;;;;;;;62.63;34.87;;;3.80;99.90;;;;;;5050087;28;20522;-69
2020/12/09 11:29:52;;;;;;;53.23;33.00;;;3.80;99.90;;;;;;5050215;28;20519;-68
2020/12/09 11:32:19;;;;;;;62.13;33.77;;;3.70;99.90;;;;;;5050002;28;20470;-66
2020/12/09 11:34:45;;;;;;;62.30;33.70;;;3.70;99.90;;;;;;5050154;28;20519;-67
2020/12/09 11:37:11;;;;;;;53.67;32.73;;;3.60;99.90;;;;;;5050047;28;20538;-68
2020/12/09 11:39:38;;;;;;;64.30;33.00;;;3.60;99.90;;;;;;5049986;28;20528;-69
2020/12/09 11:42:04;;;;;;;61.63;32.20;;;3.70;99.90;;;;;;5049016;28;20460;-68
2020/12/09 11:44:31;;;;;;;54.03;31.97;;;3.70;99.90;;;;;;5049555;28;20535;-68
2020/12/09 11:47:00;;;;;;;59.00;33.63;;;3.60;99.90;;;;;;5049822;28;20532;-69
2020/12/09 11:49:27;;;;;;;56.57;32.80;;;3.60;99.90;;;;;;5049725;28;20495;-69
2020/12/09 11:51:53;;;;;;;63.67;37.17;;;3.60;99.90;;;;;;5048865;28;21169;-67
2020/12/09 11:54:19;;;;;;;65.57;32.13;;;3.60;99.90;;;;;;5049475;28;20570;-67
2020/12/09 11:56:46;;;;;;;70.73;35.20;;;3.60;99.90;;;;;;5049326;28;20446;-67
2020/12/09 11:59:12;;;;;;;66.37;32.87;;;3.60;99.90;;;;;;5049414;28;20523;-68
2020/12/09 12:01:39;;;;;;;63.20;33.53;;;3.60;99.90;;;;;;5048748;28;20987;-68
2020/12/09 12:04:06;;;;;;;63.00;33.13;;;3.60;99.90;;;;;;5049474;28;20467;-67
2020/12/09 12:06:32;;;;;;;64.83;33.17;;;3.60;99.90;;;;;;5049309;28;20444;-69
2020/12/09 12:08:59;;;;;;;59.17;33.00;;;3.60;99.90;;;;;;5049385;28;20530;-68
2020/12/09 12:11:27;;;;;;;57.83;32.43;;;3.60;99.90;;;;;;5048485;28;20576;-68
2020/12/09 12:13:54;;;;;;;56.33;31.80;;;3.60;99.90;;;;;;5049189;28;21022;-67
2020/12/09 12:16:23;;;;;;;64.13;33.43;;;3.60;99.90;;;;;;5049332;28;21086;-67
2020/12/09 12:18:51;;;;;;;63.00;32.23;;;3.70;99.90;;;;;;5049336;28;20476;-68
2020/12/09 12:21:19;;;;;;;53.87;32.83;;;3.70;99.90;;;;;;5048539;28;20467;-68
2020/12/09 12:23:46;;;;;;;53.70;31.40;;;3.70;99.90;;;;;;5049125;28;20475;-68
2020/12/09 12:26:15;;;;;;;62.17;31.97;;;3.70;99.90;;;;;;5049384;28;20458;-68
2020/12/09 12:28:42;;;;;;;58.63;31.07;;;3.70;99.90;;;;;;5049345;28;20440;-69
2020/12/09 12:31:10;;;;;;;53.73;30.73;;;3.70;99.90;;;;;;5048267;28;21084;-69
2020/12/09 12:33:37;;;;;;;51.63;31.53;;;3.70;99.90;;;;;;5048948;28;20472;-67
2020/12/09 12:36:04;;;;;;;52.03;30.40;;;3.70;99.90;;;;;;5049178;28;20523;-69
2020/12/09 12:38:31;;;;;;;51.17;27.07;;;3.70;99.90;;;;;;5049237;28;20518;-67
2020/12/09 12:40:58;;;;;;;48.90;28.37;;;3.60;99.90;;;;;;5053789;28;20800;-68
2020/12/09 12:43:24;;;;;;;64.50;30.90;;;3.60;99.90;;;;;;5067420;28;20471;-68